createdAt,value
2023-01-25T00:02:13.812Z,101432.22
2023-01-25T00:07:19.282Z,101441.31
2023-01-25T00:12:23.161Z,101455.81
2023-01-25T00:17:27.773Z,101459.84
2023-01-25T00:22:32.849Z,101457.91
2023-01-25T00:27:39.695Z,101468.09
2023-01-25T00:33:14.996Z,101459.75
2023-01-25T00:38:34.921Z,101471.41
2023-01-25T00:43:38.851Z,101470.31
2023-01-25T00:48:45.976Z,101480.19
2023-01-25T00:53:50.681Z,101468.59
2023-01-25T00:58:57.721Z,101469.78
2023-01-25T01:04:01.567Z,101478.91
2023-01-25T01:09:10.030Z,101388.88
2023-01-25T01:14:19.160Z,101501.69
2023-01-25T01:19:27.044Z,101490.34
2023-01-25T01:24:30.928Z,101540.16
2023-01-25T01:29:36.011Z,101522.34
2023-01-25T01:34:40.882Z,101528.66
2023-01-25T01:39:48.417Z,101526.44
2023-01-25T01:44:54.954Z,101516.34
2023-01-25T01:50:15.861Z,101547.22
2023-01-25T01:55:24.898Z,101550.56
2023-01-25T02:00:39.112Z,101537.47
2023-01-25T02:06:07.305Z,101536.22
2023-01-25T02:11:13.845Z,101536.91
2023-01-25T02:16:23.816Z,101539.66
2023-01-25T02:21:40.490Z,101558.69
2023-01-25T02:26:44.332Z,101528.25
2023-01-25T02:31:50.265Z,101547.88
2023-01-25T02:37:02.774Z,101562.59
2023-01-25T02:42:08.627Z,101565.75
2023-01-25T02:47:15.501Z,101573.13
2023-01-25T02:52:19.438Z,101567.34
2023-01-25T02:57:26.073Z,101464.47
2023-01-25T03:02:31.813Z,101564.91
2023-01-25T03:07:39.804Z,101586.59
2023-01-25T03:12:47.191Z,101582.38
2023-01-25T03:17:51.315Z,101565.66
2023-01-25T03:22:57.096Z,101586.09
2023-01-25T03:28:01.201Z,101599.47
2023-01-25T03:33:09.283Z,101564.78
2023-01-25T03:38:13.678Z,101504.31
2023-01-25T03:43:18.097Z,101597.34
2023-01-25T03:48:27.841Z,101599.59
2023-01-25T03:53:33.610Z,101591.03
2023-01-25T03:58:47.911Z,101584.31
2023-01-25T04:03:54.291Z,101590.88
2023-01-25T04:08:58.330Z,101572.78
2023-01-25T04:14:10.046Z,101605.38
2023-01-25T04:19:23.101Z,101625.91
2023-01-25T04:24:28.457Z,101628.19
2023-01-25T04:29:41.032Z,101640.09
2023-01-25T04:34:53.188Z,101638.38
2023-01-25T04:40:03.094Z,101637.34
2023-01-25T04:45:13.771Z,101607.63
2023-01-25T04:50:24.018Z,101646.44
2023-01-25T04:55:33.582Z,101640.56
2023-01-25T05:00:43.139Z,101658.72
2023-01-25T05:05:50.886Z,101630.84
2023-01-25T05:11:00.101Z,101644.47
2023-01-25T05:16:03.927Z,101652.34
2023-01-25T05:21:28.731Z,101657.28
2023-01-25T05:26:51.931Z,101659.25
2023-01-25T05:31:56.987Z,101667.63
2023-01-25T05:37:01.724Z,101652.41
2023-01-25T05:42:15.297Z,101670.19
2023-01-25T05:47:19.616Z,101671.88
2023-01-25T05:52:23.509Z,101694.22
2023-01-25T05:57:29.571Z,101670.41
2023-01-25T06:02:37.875Z,101677.72
2023-01-25T06:07:42.750Z,101679.50
2023-01-25T06:12:47.758Z,101672.88
2023-01-25T06:17:57.902Z,101672.16
2023-01-25T06:23:28.332Z,101638.13
2023-01-25T06:28:36.302Z,101634.59
2023-01-25T06:33:42.334Z,101640.03
2023-01-25T06:38:52.119Z,101648.19
2023-01-25T06:43:58.872Z,101666.34
2023-01-25T06:49:02.825Z,101659.81
2023-01-25T06:54:08.010Z,101653.56
2023-01-25T06:59:12.715Z,101652.63
2023-01-25T07:04:17.507Z,101656.72
2023-01-25T07:09:25.090Z,101663.34
2023-01-25T07:14:29.944Z,101661.38
2023-01-25T07:19:35.522Z,101668.03
2023-01-25T07:24:40.338Z,101636.31
2023-01-25T07:29:46.392Z,101651.84
2023-01-25T07:34:50.270Z,101656.66
2023-01-25T07:39:55.171Z,101634.09
2023-01-25T07:44:59.125Z,101657.31
2023-01-25T07:50:03.076Z,101644.75
2023-01-25T07:55:07.870Z,101561.00
2023-01-25T08:00:13.683Z,101641.72
2023-01-25T08:05:18.675Z,101648.53
2023-01-25T08:10:23.476Z,101652.97
2023-01-25T08:15:27.484Z,101649.38
2023-01-25T08:20:31.206Z,101658.09
2023-01-25T08:25:38.949Z,101653.63
2023-01-25T08:30:56.518Z,101663.13
2023-01-25T08:36:03.441Z,101678.44
2023-01-25T08:41:11.336Z,101683.63
2023-01-25T08:46:17.330Z,101661.53
2023-01-25T08:51:23.955Z,101646.19
2023-01-25T08:56:30.355Z,101661.44
2023-01-25T09:01:38.077Z,101664.63
2023-01-25T09:06:42.024Z,101641.81
2023-01-25T09:11:47.915Z,101663.41
2023-01-25T09:16:51.680Z,101671.34
2023-01-25T09:21:55.584Z,101675.91
2023-01-25T09:27:00.208Z,101685.75
2023-01-25T09:32:04.586Z,101674.94
2023-01-25T09:37:09.945Z,101669.38
2023-01-25T09:42:49.041Z,101660.75
2023-01-25T09:48:19.860Z,101666.22
2023-01-25T09:53:36.810Z,101677.47
2023-01-25T09:58:47.197Z,101661.09
2023-01-25T10:03:56.071Z,101672.34
2023-01-25T10:09:25.362Z,101654.66
2023-01-25T10:14:34.915Z,101634.72
2023-01-25T10:20:04.784Z,101649.19
2023-01-25T10:25:25.697Z,101645.41
2023-01-25T10:30:33.141Z,101640.78
2023-01-25T10:35:45.885Z,101652.13
2023-01-25T10:41:14.930Z,101661.34
2023-01-25T10:46:30.013Z,101625.06
2023-01-25T10:51:36.348Z,101633.91
2023-01-25T10:56:44.739Z,101645.69
2023-01-25T11:01:49.775Z,101574.31
2023-01-25T11:06:53.565Z,101532.16
2023-01-25T11:12:18.403Z,101619.81
2023-01-25T11:17:32.536Z,101616.59
2023-01-25T11:22:36.536Z,101632.22
2023-01-25T11:27:40.410Z,101621.03
2023-01-25T11:32:47.627Z,101611.84
2023-01-25T11:38:03.791Z,101600.94
2023-01-25T11:43:27.182Z,101621.25
2023-01-25T11:48:55.596Z,101596.84
2023-01-25T11:54:36.934Z,101588.31
2023-01-25T12:00:32.698Z,101583.94
2023-01-25T12:05:54.619Z,101569.66
2023-01-25T12:11:27.554Z,101560.66
2023-01-25T12:17:03.300Z,101542.72
2023-01-25T12:22:22.889Z,101521.91
2023-01-25T12:27:34.765Z,101513.88
2023-01-25T12:32:47.363Z,101539.56
2023-01-25T12:38:00.228Z,101539.59
2023-01-25T12:43:16.526Z,101531.59
2023-01-25T12:48:33.081Z,101443.75
2023-01-25T12:53:45.777Z,101529.09
2023-01-25T12:58:57.712Z,101532.22
2023-01-25T13:04:22.323Z,101524.31
2023-01-25T13:09:59.025Z,101537.16
2023-01-25T13:15:02.816Z,101519.78
2023-01-25T13:20:53.887Z,101508.09
2023-01-25T13:26:23.370Z,101500.63
2023-01-25T13:31:51.604Z,101475.44
2023-01-25T13:36:58.853Z,101475.03
2023-01-25T13:42:21.592Z,101465.19
2023-01-25T13:47:31.977Z,101486.66
2023-01-25T13:52:39.679Z,101474.94
2023-01-25T13:57:44.325Z,101460.16
2023-01-25T14:02:58.817Z,101468.75
2023-01-25T14:08:02.921Z,101443.84
2023-01-25T14:13:07.031Z,101445.91
2023-01-25T14:18:18.261Z,101443.66
2023-01-25T14:23:31.465Z,101432.97
2023-01-25T14:28:35.592Z,101422.91
2023-01-25T14:33:45.272Z,101425.16
2023-01-25T14:38:51.678Z,101420.78
2023-01-25T14:44:16.176Z,101413.59
2023-01-25T14:49:28.930Z,101408.09
2023-01-25T14:54:38.982Z,101407.31
2023-01-25T14:59:51.831Z,101414.38
2023-01-25T15:05:15.175Z,101393.66
2023-01-25T15:10:24.447Z,101391.00
2023-01-25T15:15:32.726Z,101391.50
2023-01-25T15:20:44.301Z,101387.84
2023-01-25T15:25:59.961Z,101377.41
2023-01-25T15:31:05.891Z,101337.38
2023-01-25T15:36:11.156Z,101366.06
2023-01-25T15:41:15.772Z,101358.34
2023-01-25T15:46:26.090Z,101344.59
2023-01-25T15:51:35.568Z,101333.28
2023-01-25T15:56:43.863Z,101329.34
2023-01-25T16:01:47.883Z,101306.28
2023-01-25T16:06:55.397Z,101316.84
2023-01-25T16:12:02.132Z,101228.75
2023-01-25T16:17:06.220Z,101313.81
2023-01-25T16:22:10.490Z,101294.19
2023-01-25T16:27:27.408Z,101296.59
2023-01-25T16:32:31.173Z,101275.25
2023-01-25T16:37:35.124Z,101272.19
2023-01-25T16:42:39.784Z,101184.41
2023-01-25T16:47:44.377Z,101250.59
2023-01-25T16:52:50.971Z,101239.13
2023-01-25T16:57:54.505Z,101233.88
2023-01-25T17:02:59.923Z,101223.81
2023-01-25T17:08:04.129Z,101225.50
2023-01-25T17:13:09.542Z,101186.78
2023-01-25T17:18:13.258Z,101201.16
2023-01-25T17:23:18.043Z,101194.59
2023-01-25T17:28:22.541Z,101204.13
2023-01-25T17:33:26.912Z,101115.91
2023-01-25T17:38:30.796Z,101176.22
2023-01-25T17:43:34.937Z,101164.25
2023-01-25T17:48:42.025Z,101174.00
2023-01-25T17:53:45.743Z,101166.09
2023-01-25T17:58:50.458Z,101164.13
2023-01-25T18:03:55.192Z,101158.75
2023-01-25T18:09:02.834Z,101139.03
2023-01-25T18:14:09.468Z,101134.50
2023-01-25T18:19:13.812Z,101129.81
2023-01-25T18:24:25.855Z,101114.94
2023-01-25T18:29:46.024Z,101097.59
2023-01-25T18:34:50.130Z,101098.72
2023-01-25T18:39:55.844Z,101102.34
2023-01-25T18:45:00.447Z,101083.03
2023-01-25T18:50:08.732Z,101079.72
2023-01-25T18:55:12.847Z,101093.28
2023-01-25T19:00:20.140Z,101080.69
2023-01-25T19:05:24.029Z,101087.53
2023-01-25T19:10:27.877Z,101099.44
2023-01-25T19:15:31.654Z,101081.81
2023-01-25T19:20:35.522Z,101085.28
2023-01-25T19:25:39.569Z,101103.13
2023-01-25T19:30:43.579Z,101084.53
2023-01-25T19:35:47.483Z,101078.66
2023-01-25T19:40:51.248Z,101055.91
2023-01-25T19:45:55.267Z,101077.13
2023-01-25T19:51:12.235Z,101056.00
2023-01-25T19:56:18.589Z,101062.78
2023-01-25T20:01:25.692Z,101056.09
2023-01-25T20:06:31.263Z,101058.72
2023-01-25T20:11:36.338Z,101059.63
2023-01-25T20:16:40.487Z,101052.03
2023-01-25T20:21:45.505Z,101066.44
2023-01-25T20:26:49.821Z,101062.25
2023-01-25T20:31:54.853Z,101069.03
2023-01-25T20:37:00.979Z,101063.97
2023-01-25T20:42:04.768Z,101078.38
2023-01-25T20:47:08.707Z,101086.88
2023-01-25T20:52:14.372Z,101073.38
2023-01-25T20:57:19.038Z,101071.69
2023-01-25T21:02:22.775Z,101067.47
2023-01-25T21:07:26.799Z,101064.94
2023-01-25T21:12:32.416Z,101075.97
2023-01-25T21:17:36.283Z,101063.28
2023-01-25T21:22:40.168Z,101070.97
2023-01-25T21:27:43.998Z,101059.06
2023-01-25T21:32:48.172Z,101064.22
2023-01-25T21:37:52.613Z,101067.63
2023-01-25T21:42:56.481Z,101066.78
2023-01-25T21:48:01.182Z,101058.34
2023-01-25T21:53:04.923Z,101060.91
2023-01-25T21:58:09.714Z,101065.97
2023-01-25T22:03:13.567Z,101056.69
2023-01-25T22:08:17.700Z,101053.31
2023-01-25T22:13:21.458Z,101046.56
2023-01-25T22:18:25.397Z,101050.00
2023-01-25T22:23:30.642Z,100966.88
2023-01-25T22:28:46.805Z,101031.41
2023-01-25T22:33:52.367Z,101017.03
2023-01-25T22:38:56.847Z,101020.44
2023-01-25T22:44:00.691Z,101017.94
2023-01-25T22:49:05.564Z,101021.31
2023-01-25T22:54:09.511Z,101029.81
2023-01-25T22:59:19.381Z,101013.69
2023-01-25T23:04:23.300Z,101014.56
2023-01-25T23:09:27.218Z,101010.34
2023-01-25T23:14:52.955Z,101001.03
2023-01-25T23:19:57.687Z,101019.69
2023-01-25T23:25:01.541Z,100995.91
2023-01-25T23:30:08.199Z,101007.81
2023-01-25T23:35:13.230Z,101011.19
2023-01-25T23:40:17.679Z,101029.00
2023-01-25T23:45:21.475Z,101033.25
2023-01-25T23:50:25.380Z,101042.59
2023-01-25T23:55:29.240Z,101046.81
